Time;durP1;ratioP1;P1;durP2;ratioP2;P2;SDS_P1;SDS_P2;PMS_P1;PMS_P2;Temp;Humidity;BMP_temperature;BMP_pressure;BME280_temperature;BME280_humidity;BME280_pressure;Samples;Min_cycle;Max_cycle;Signal;HPM_P1;HPM_P2
2021/05/13 00:00:19;;;;;;;2.78;1.67;;;;;;;25.54;39.24;94132.94;5047738;28;20392;-70
2021/05/13 00:02:45;;;;;;;2.95;1.83;;;;;;;25.54;39.76;94133.66;5047753;28;20048;-70
2021/05/13 00:05:11;;;;;;;2.60;1.80;;;;;;;25.53;39.11;94136.94;5046768;28;20029;-70
2021/05/13 00:07:37;;;;;;;2.53;2.05;;;;;;;25.51;39.23;94136.75;5046838;28;20086;-70
2021/05/13 00:10:06;;;;;;;2.17;1.92;;;;;;;25.55;39.07;94146.06;5046833;28;20025;-70
2021/05/13 00:15:11;;;;;;;2.05;1.67;;;;;;;25.49;39.90;94139.31;5046502;28;20403;-70
2021/05/13 00:17:37;;;;;;;2.38;1.83;;;;;;;25.48;40.01;94137.84;5045974;28;20025;-70
2021/05/13 00:20:06;;;;;;;2.53;1.70;;;;;;;25.50;39.96;94138.03;5047474;28;20044;-70
2021/05/13 00:22:31;;;;;;;3.38;2.15;;;;;;;25.45;39.61;94136.19;5047514;28;20052;-70
2021/05/13 00:24:59;;;;;;;2.85;2.00;;;;;;;25.46;39.74;94132.19;5029437;28;20578;-69
2021/05/13 00:27:24;;;;;;;2.75;1.73;;;;;;;25.44;39.36;94140.19;5047074;28;20087;-70
2021/05/13 00:29:50;;;;;;;2.55;1.83;;;;;;;25.45;39.39;94136.91;5047560;28;20483;-70
2021/05/13 00:32:15;;;;;;;2.53;1.83;;;;;;;25.44;40.06;94140.94;5027058;28;20867;-70
2021/05/13 00:34:41;;;;;;;3.15;1.92;;;;;;;25.43;39.95;94133.28;5027113;28;20040;-71
2021/05/13 00:37:06;;;;;;;2.97;1.83;;;;;;;25.46;39.35;94137.66;5043473;28;20091;-70
2021/05/13 00:39:32;;;;;;;3.00;1.90;;;;;;;25.43;40.12;94139.47;5046992;28;20086;-70
2021/05/13 00:41:57;;;;;;;2.15;1.73;;;;;;;25.45;39.76;94136.19;5046703;28;20097;-70
2021/05/13 00:44:23;;;;;;;3.40;1.98;;;;;;;25.42;40.09;94131.81;5029692;28;20029;-70
2021/05/13 00:46:49;;;;;;;2.53;1.88;;;;;;;25.23;39.55;94109.56;5029408;28;20035;-70
2021/05/13 00:49:16;;;;;;;2.80;2.00;;;;;;;25.42;39.69;94142.75;5047140;28;20117;-70
2021/05/13 00:51:42;;;;;;;2.67;1.70;;;;;;;25.43;40.00;94141.50;5047005;28;20035;-70
2021/05/13 00:54:07;;;;;;;3.70;1.95;;;;;;;25.42;40.20;94145.50;5028963;28;20049;-70
2021/05/13 00:56:33;;;;;;;2.70;1.73;;;;;;;25.41;39.42;94146.75;5029121;28;20028;-70
2021/05/13 00:59:08;;;;;;;2.75;1.77;;;;;;;25.40;39.70;94140.56;5047083;28;20017;-70
2021/05/13 01:01:51;;;;;;;2.05;1.70;;;;;;;25.40;39.71;94145.31;5030246;28;20040;-70
2021/05/13 01:04:17;;;;;;;3.38;2.05;;;;;;;25.32;39.24;94133.63;5046913;28;20036;-70
2021/05/13 01:06:44;;;;;;;3.10;1.83;;;;;;;25.39;39.42;94138.38;5046732;28;20658;-70
2021/05/13 01:09:11;;;;;;;3.53;2.10;;;;;;;25.34;39.72;94131.06;5048088;28;20044;-70
2021/05/13 01:11:39;;;;;;;2.90;2.00;;;;;;;25.34;39.48;94142.00;5033173;28;20028;-70
2021/05/13 01:14:22;;;;;;;2.83;1.92;;;;;;;25.36;40.27;94134.00;5050830;28;20025;-70
2021/05/13 01:17:15;;;;;;;3.35;2.17;;;;;;;25.36;39.40;94139.47;5050647;28;20049;-70
2021/05/13 01:19:51;;;;;;;2.67;2.10;;;;;;;25.34;40.18;94136.53;5050753;28;20455;-70
2021/05/13 01:22:18;;;;;;;2.55;1.92;;;;;;;25.34;39.87;94152.94;5032880;28;20040;-69
2021/05/13 01:24:43;;;;;;;3.28;2.50;;;;;;;25.34;39.52;94144.75;5032717;28;20378;-70
2021/05/13 01:27:09;;;;;;;2.22;1.98;;;;;;;25.35;39.74;94143.47;5050547;28;20036;-70
2021/05/13 01:29:35;;;;;;;3.15;2.30;;;;;;;25.35;40.30;94135.25;5032671;28;20025;-70
2021/05/13 01:32:00;;;;;;;3.25;2.13;;;;;;;25.30;39.85;94130.69;5032752;28;20033;-70
2021/05/13 01:34:26;;;;;;;2.38;2.10;;;;;;;25.34;39.88;94137.28;5032756;28;20052;-70
2021/05/13 01:36:51;;;;;;;2.60;1.90;;;;;;;25.31;39.68;94132.16;5050819;28;20039;-71
2021/05/13 01:39:17;;;;;;;2.95;2.30;;;;;;;25.30;39.64;94125.22;5032410;28;20024;-70
2021/05/13 01:41:42;;;;;;;3.45;2.20;;;;;;;25.31;40.19;94132.16;5050526;28;20104;-71
2021/05/13 01:44:08;;;;;;;2.55;1.90;;;;;;;25.11;39.75;94092.03;5049995;28;20083;-71
2021/05/13 01:46:33;;;;;;;2.38;2.10;;;;;;;25.30;40.49;94127.97;5032565;28;20033;-71
2021/05/13 01:48:59;;;;;;;2.83;2.17;;;;;;;25.30;40.47;94119.75;5032301;28;20040;-71
2021/05/13 01:51:24;;;;;;;3.00;2.30;;;;;;;25.30;39.51;94119.75;5050145;28;20040;-70
2021/05/13 01:53:50;;;;;;;2.50;2.22;;;;;;;25.31;39.55;94121.22;5050264;28;20049;-71
2021/05/13 01:56:15;;;;;;;3.45;2.13;;;;;;;25.30;39.83;94122.50;5049944;28;20025;-71
2021/05/13 01:58:41;;;;;;;2.92;2.55;;;;;;;25.30;40.30;94125.22;5050146;28;20028;-71
2021/05/13 02:01:09;;;;;;;3.25;2.70;;;;;;;25.27;40.24;94120.84;5050144;28;20024;-71
2021/05/13 02:03:35;;;;;;;2.72;2.42;;;;;;;25.30;39.68;94121.78;5049868;28;20423;-70
2021/05/13 02:06:01;;;;;;;3.97;2.60;;;;;;;25.27;39.69;94131.06;5049981;28;20040;-71
2021/05/13 02:08:26;;;;;;;3.45;2.50;;;;;;;25.26;39.95;94119.41;5049844;28;20062;-71
2021/05/13 02:10:51;;;;;;;3.28;2.60;;;;;;;25.26;39.96;94124.88;5049895;28;20029;-71
2021/05/13 02:13:17;;;;;;;3.10;2.33;;;;;;;25.23;39.76;94123.22;5049619;28;20090;-70
2021/05/13 02:15:42;;;;;;;3.42;2.63;;;;;;;25.25;40.04;94117.94;5049759;28;20028;-71
2021/05/13 02:18:08;;;;;;;3.38;2.38;;;;;;;25.27;40.33;94114.66;5030823;28;20417;-70
2021/05/13 02:20:33;;;;;;;3.08;2.60;;;;;;;25.18;40.45;94113.16;5034495;28;20481;-70
2021/05/13 02:22:59;;;;;;;2.95;2.60;;;;;;;25.23;39.87;94115.03;5029604;28;20060;-71
2021/05/13 02:25:31;;;;;;;2.72;2.33;;;;;;;25.24;39.96;94121.94;5029614;28;20029;-70
2021/05/13 02:27:56;;;;;;;3.70;2.53;;;;;;;25.25;39.78;94128.88;5029475;28;20033;-71
2021/05/13 02:30:22;;;;;;;3.28;2.38;;;;;;;25.20;40.26;94126.28;5029597;28;20033;-71
2021/05/13 02:32:47;;;;;;;3.72;2.45;;;;;;;24.97;40.16;94098.88;5029475;28;20029;-70
2021/05/13 02:35:13;;;;;;;2.97;2.65;;;;;;;25.23;40.58;94115.03;5011854;28;20034;-70
2021/05/13 02:37:39;;;;;;;3.58;2.83;;;;;;;25.20;40.23;94127.03;5029222;28;20407;-70
2021/05/13 02:40:06;;;;;;;2.95;2.35;;;;;;;25.20;40.27;94121.56;5029072;28;20025;-70
2021/05/13 02:42:31;;;;;;;3.22;2.78;;;;;;;25.23;40.33;94130.69;5029292;28;20504;-70
2021/05/13 02:44:56;;;;;;;3.08;2.65;;;;;;;25.21;40.37;94116.84;5011423;28;20056;-70
2021/05/13 02:47:22;;;;;;;3.92;2.95;;;;;;;25.14;40.10;94110.09;5027886;28;20052;-70
2021/05/13 02:49:47;;;;;;;3.90;3.05;;;;;;;25.21;40.68;94117.56;5029476;28;20091;-70
2021/05/13 02:52:13;;;;;;;3.30;2.80;;;;;;;24.83;40.41;94078.44;5027876;28;20029;-70
2021/05/13 02:54:38;;;;;;;3.30;2.78;;;;;;;25.19;40.48;94109.19;5023771;28;20028;-70
2021/05/13 02:57:04;;;;;;;3.40;2.80;;;;;;;25.19;40.18;94120.09;5013985;28;20035;-70
2021/05/13 02:59:41;;;;;;;3.45;2.72;;;;;;;25.19;40.15;94120.09;5048283;28;20037;-70
2021/05/13 03:02:07;;;;;;;4.95;3.30;;;;;;;24.81;40.38;94069.31;5048650;28;20045;-70
2021/05/13 03:04:33;;;;;;;4.40;3.03;;;;;;;25.17;40.85;94128.13;5048603;28;20040;-70
2021/05/13 03:06:58;;;;;;;4.25;3.20;;;;;;;25.13;40.59;94116.81;5030369;28;20032;-70
2021/05/13 03:09:24;;;;;;;5.13;3.35;;;;;;;25.17;40.67;94119.94;5047455;28;20025;-70
2021/05/13 03:11:49;;;;;;;3.90;3.00;;;;;;;25.18;40.77;94124.09;5048592;28;20059;-70
2021/05/13 03:14:15;;;;;;;4.25;3.08;;;;;;;25.18;40.75;94123.38;5048510;28;20204;-70
2021/05/13 03:16:41;;;;;;;3.70;2.88;;;;;;;25.16;40.30;94121.19;5048463;28;20685;-70
2021/05/13 03:19:12;;;;;;;4.07;3.15;;;;;;;25.18;40.30;94128.84;5048601;28;20036;-70
2021/05/13 03:21:40;;;;;;;3.80;3.40;;;;;;;25.16;40.59;94148.50;5048058;28;20032;-70
2021/05/13 03:29:16;;;;;;;3.95;3.10;;;;;;;25.15;40.92;94114.25;5047934;28;20492;-70
2021/05/13 03:31:41;;;;;;;3.60;3.13;;;;;;;25.16;40.19;94115.72;5045333;28;20086;-70
2021/05/13 03:34:07;;;;;;;3.92;3.20;;;;;;;25.19;40.76;94120.09;5012611;28;20040;-70
2021/05/13 03:36:32;;;;;;;4.43;3.22;;;;;;;24.99;40.42;94082.72;5029624;28;20108;-70
2021/05/13 03:39:00;;;;;;;3.70;3.03;;;;;;;25.17;40.29;94121.91;5028854;28;20037;-70
2021/05/13 03:41:26;;;;;;;4.15;3.15;;;;;;;25.22;41.13;94129.94;5027956;28;20469;-69
2021/05/13 03:43:51;;;;;;;4.68;4.05;;;;;;;25.25;41.85;94128.88;5046896;28;20036;-69
2021/05/13 03:46:17;;;;;;;6.07;3.60;;;;;;;25.28;41.48;94122.31;5018669;28;20025;-69
2021/05/13 03:48:42;;;;;;;4.65;3.78;;;;;;;25.34;40.97;94131.81;5044827;28;20048;-69
2021/05/13 03:51:08;;;;;;;6.20;3.63;;;;;;;25.42;41.61;94123.63;5046891;28;20551;-70
2021/05/13 03:53:33;;;;;;;6.00;4.03;;;;;;;25.48;41.69;94135.13;5051382;28;20044;-69
2021/05/13 03:55:59;;;;;;;4.97;3.58;;;;;;;25.58;41.28;94136.78;5064036;28;20020;-69
2021/05/13 03:58:28;;;;;;;6.35;3.97;;;;;;;25.65;40.64;94132.59;5051450;28;20538;-70
2021/05/13 04:03:19;;;;;;;4.57;3.47;;;;;;;25.61;40.48;94088.47;5055358;28;20040;-69
2021/05/13 04:05:45;;;;;;;5.28;3.80;;;;;;;26.04;39.71;94130.81;5045367;28;20143;-69
2021/05/13 04:08:12;;;;;;;4.95;3.85;;;;;;;26.12;39.89;94126.06;5060491;28;20092;-70
2021/05/13 04:10:37;;;;;;;5.65;3.95;;;;;;;26.20;40.12;94124.03;5058866;28;20032;-69
2021/05/13 04:13:05;;;;;;;5.78;3.95;;;;;;;26.32;39.57;94122.41;5041222;28;20055;-69
2021/05/13 04:15:30;;;;;;;5.90;3.80;;;;;;;26.44;39.05;94118.75;5059511;28;20032;-69
2021/05/13 04:17:55;;;;;;;5.70;4.40;;;;;;;26.53;39.46;94136.63;5028916;28;20037;-69
2021/05/13 04:20:21;;;;;;;5.20;3.90;;;;;;;26.62;38.95;94127.84;5055919;28;20082;-67
2021/05/13 04:22:46;;;;;;;4.93;3.80;;;;;;;26.73;38.69;94122.00;5049395;28;20044;-69
2021/05/13 04:25:12;;;;;;;8.05;5.53;;;;;;;26.58;40.07;94116.53;5049304;28;20029;-67
2021/05/13 04:27:38;;;;;;;6.82;4.30;;;;;;;26.68;39.13;94120.16;5049008;28;20043;-68
2021/05/13 04:30:04;;;;;;;5.75;4.10;;;;;;;26.80;38.21;94125.41;5048076;28;20040;-70
2021/05/13 04:32:30;;;;;;;6.47;4.55;;;;;;;26.93;38.32;94129.97;5046751;28;20036;-70
2021/05/13 04:34:55;;;;;;;6.85;4.18;;;;;;;26.97;38.57;94125.56;5048837;28;20025;-70
2021/05/13 04:37:20;;;;;;;6.47;4.70;;;;;;;27.07;37.84;94123.72;5078319;28;20020;-70
2021/05/13 04:39:46;;;;;;;7.05;4.75;;;;;;;27.11;38.16;94129.53;5056016;28;20396;-69
2021/05/13 04:42:11;;;;;;;6.57;4.38;;;;;;;27.16;37.90;94136.06;5042307;28;20404;-69
2021/05/13 04:44:37;;;;;;;7.45;4.65;;;;;;;27.17;37.68;94132.78;5053278;28;21334;-70
2021/05/13 04:47:20;;;;;;;5.25;4.28;;;;;;;27.27;37.50;94128.19;5050295;28;20038;-71
2021/05/13 04:49:47;;;;;;;5.15;4.55;;;;;;;27.38;37.59;94122.25;5048850;28;20032;-71
2021/05/13 04:52:13;;;;;;;4.95;4.10;;;;;;;27.42;37.21;94125.34;5061617;28;20479;-70
2021/05/13 04:54:39;;;;;;;6.15;5.03;;;;;;;27.42;37.34;94120.59;5049346;28;20040;-71
2021/05/13 04:57:04;;;;;;;8.70;5.18;;;;;;;27.50;37.45;94120.56;5065414;28;20032;-70
2021/05/13 04:59:30;;;;;;;6.50;4.70;;;;;;;27.57;37.09;94125.28;5050297;28;20021;-70
2021/05/13 05:01:55;;;;;;;5.70;4.43;;;;;;;27.62;37.75;94129.81;5050190;28;20035;-69
2021/05/13 05:04:21;;;;;;;7.13;4.90;;;;;;;27.65;37.26;94126.69;5046226;28;20029;-70
2021/05/13 05:06:46;;;;;;;5.35;4.18;;;;;;;27.38;37.64;94086.63;5047974;28;20055;-70
2021/05/13 05:09:12;;;;;;;9.32;4.70;;;;;;;27.68;37.32;94108.38;5027925;28;20048;-70
2021/05/13 05:11:37;;;;;;;8.48;6.10;;;;;;;27.46;37.21;94098.28;5028654;28;20071;-71
2021/05/13 05:14:03;;;;;;;7.43;5.22;;;;;;;27.69;38.22;94126.31;5027847;28;20029;-70
2021/05/13 05:16:29;;;;;;;6.13;4.90;;;;;;;27.77;37.57;94124.97;5025028;28;20043;-70
2021/05/13 05:18:55;;;;;;;8.68;5.15;;;;;;;27.88;37.57;94121.78;5041064;28;20029;-70
2021/05/13 05:21:20;;;;;;;7.75;5.50;;;;;;;27.77;37.31;94101.00;5046708;28;20110;-72
2021/05/13 05:23:45;;;;;;;8.23;5.25;;;;;;;28.03;37.38;94121.69;5053815;28;20033;-70
2021/05/13 05:26:11;;;;;;;5.88;4.93;;;;;;;28.09;37.31;94120.19;5045822;28;20083;-70
2021/05/13 05:28:36;;;;;;;7.05;4.68;;;;;;;28.09;36.99;94142.16;5045571;28;20029;-69
2021/05/13 05:31:02;;;;;;;7.38;5.40;;;;;;;28.17;38.58;94120.84;5046059;28;20040;-71
2021/05/13 05:33:27;;;;;;;5.82;4.78;;;;;;;28.23;37.88;94126.13;5027264;28;20035;-70
2021/05/13 05:35:53;;;;;;;6.65;5.18;;;;;;;28.33;37.72;94122.88;5046139;28;20025;-70
2021/05/13 05:38:18;;;;;;;8.02;4.30;;;;;;;28.35;37.96;94114.09;5045574;28;20054;-70
2021/05/13 05:40:44;;;;;;;7.18;4.82;;;;;;;28.43;39.42;94123.72;5040428;28;20125;-69
2021/05/13 05:43:09;;;;;;;6.15;4.50;;;;;;;28.28;38.63;94128.59;5056083;28;20466;-71
2021/05/13 05:45:35;;;;;;;6.32;5.10;;;;;;;28.25;39.29;94116.00;5061194;28;20040;-69
2021/05/13 05:48:00;;;;;;;6.45;5.07;;;;;;;28.29;39.49;94127.31;5043481;28;20029;-70
2021/05/13 05:50:31;;;;;;;6.90;5.50;;;;;;;28.23;39.33;94124.09;5035885;28;20790;-70
2021/05/13 05:52:56;;;;;;;6.63;5.20;;;;;;;28.32;39.03;94126.19;5044844;28;20061;-71
2021/05/13 05:55:22;;;;;;;6.88;4.65;;;;;;;28.32;38.73;94134.44;5028962;28;20401;-75
2021/05/13 05:57:47;;;;;;;6.18;5.13;;;;;;;28.41;38.45;94134.53;5056762;28;20024;-70
2021/05/13 06:00:13;;;;;;;6.68;5.43;;;;;;;28.44;38.49;94132.69;5047707;28;20388;-69
2021/05/13 06:02:39;;;;;;;6.55;5.38;;;;;;;28.39;38.85;94125.41;5010574;28;20049;-70
2021/05/13 06:05:05;;;;;;;7.03;5.93;;;;;;;28.35;38.70;94130.56;5060064;28;20028;-71
2021/05/13 06:07:30;;;;;;;6.07;5.20;;;;;;;28.32;39.69;94131.69;5053329;28;20119;-72
2021/05/13 06:09:56;;;;;;;9.32;6.00;;;;;;;28.27;37.98;94129.91;5054885;28;20024;-71
2021/05/13 06:12:22;;;;;;;8.90;6.55;;;;;;;28.18;38.36;94127.06;5065639;28;20036;-71
2021/05/13 06:14:48;;;;;;;9.65;7.15;;;;;;;28.06;37.73;94118.53;5062525;28;20500;-72
2021/05/13 06:17:13;;;;;;;9.27;7.22;;;;;;;27.94;38.18;94125.03;5077679;28;20503;-71
2021/05/13 06:19:39;;;;;;;9.60;7.30;;;;;;;27.96;37.77;94134.16;5046775;28;20032;-71
2021/05/13 06:22:05;;;;;;;8.60;7.28;;;;;;;27.84;37.56;94133.16;5048899;28;20032;-70
2021/05/13 06:24:30;;;;;;;9.15;6.88;;;;;;;27.86;37.64;94130.59;5049527;28;20021;-72
2021/05/13 06:26:59;;;;;;;8.20;7.35;;;;;;;27.79;37.78;94142.34;5048354;28;20455;-71
2021/05/13 06:29:25;;;;;;;8.73;6.93;;;;;;;27.71;37.85;94140.91;5064356;28;20124;-71
2021/05/13 06:31:50;;;;;;;8.75;7.43;;;;;;;27.49;38.11;94110.88;5066137;28;20032;-72
2021/05/13 06:34:16;;;;;;;10.20;7.40;;;;;;;27.53;37.95;94130.44;5076220;28;20495;-71
2021/05/13 06:36:41;;;;;;;10.52;7.65;;;;;;;27.44;38.05;94118.03;5035195;28;20154;-70
2021/05/13 06:39:07;;;;;;;10.10;7.60;;;;;;;27.45;37.79;94124.97;5061260;28;20111;-71
2021/05/13 06:41:32;;;;;;;11.00;7.90;;;;;;;27.31;38.22;94125.78;5064378;28;20024;-71
2021/05/13 06:43:58;;;;;;;8.50;7.45;;;;;;;27.14;37.77;94117.44;5061545;28;20513;-71
2021/05/13 06:46:24;;;;;;;9.55;7.85;;;;;;;27.20;38.07;94120.72;5062162;28;20021;-71
2021/05/13 06:48:50;;;;;;;11.30;8.48;;;;;;;27.14;38.74;94139.38;5058987;28;20029;-71
2021/05/13 06:51:15;;;;;;;9.55;7.72;;;;;;;27.13;38.61;94132.44;5030895;28;20670;-71
2021/05/13 06:53:41;;;;;;;10.10;7.82;;;;;;;26.72;38.71;94065.72;5047391;28;20053;-71
2021/05/13 06:56:06;;;;;;;8.20;7.32;;;;;;;27.08;38.80;94140.88;5063551;28;20029;-71
2021/05/13 06:58:32;;;;;;;9.32;7.70;;;;;;;27.00;38.90;94140.91;5048358;28;20033;-71
2021/05/13 07:00:57;;;;;;;9.68;7.95;;;;;;;26.93;38.92;94130.69;5049074;28;20488;-72
2021/05/13 07:03:23;;;;;;;10.35;7.60;;;;;;;26.91;38.64;94135.28;5063892;28;20774;-72
2021/05/13 07:05:48;;;;;;;9.10;7.32;;;;;;;26.84;38.69;94131.22;5048686;28;20411;-71
2021/05/13 07:08:14;;;;;;;10.50;7.80;;;;;;;26.56;39.03;94102.66;5048288;28;20111;-72
2021/05/13 07:10:39;;;;;;;9.30;7.63;;;;;;;26.68;38.79;94122.91;5048604;28;20033;-71
2021/05/13 07:13:05;;;;;;;9.10;7.28;;;;;;;26.71;39.34;94124.53;5048870;28;20032;-71
2021/05/13 07:15:31;;;;;;;8.00;7.20;;;;;;;26.66;38.89;94111.78;5051909;28;20029;-71
2021/05/13 07:17:57;;;;;;;9.85;7.65;;;;;;;26.67;39.21;94118.72;5031181;28;20510;-71
2021/05/13 07:20:23;;;;;;;11.57;7.53;;;;;;;26.63;39.39;94126.56;5049314;28;20029;-71
2021/05/13 07:22:49;;;;;;;7.95;6.70;;;;;;;26.61;39.24;94115.44;5031147;28;20048;-72
2021/05/13 07:25:15;;;;;;;9.00;7.20;;;;;;;26.56;39.89;94108.13;5047949;28;20446;-71
2021/05/13 07:27:40;;;;;;;8.25;6.95;;;;;;;26.54;39.59;94121.66;5048825;28;20036;-72
2021/05/13 07:30:06;;;;;;;9.30;7.10;;;;;;;26.45;39.55;94124.97;5047858;28;20024;-72
2021/05/13 07:32:32;;;;;;;7.85;6.85;;;;;;;26.40;39.47;94118.41;5063736;28;20065;-71
2021/05/13 07:34:57;;;;;;;8.18;7.05;;;;;;;26.45;39.91;94116.75;5035947;28;20037;-71
2021/05/13 07:37:25;;;;;;;8.25;7.07;;;;;;;26.41;39.31;94108.91;5029013;28;20048;-69
2021/05/13 07:39:50;;;;;;;8.65;6.80;;;;;;;26.44;39.83;94101.59;5044008;28;20068;-69
2021/05/13 07:42:15;;;;;;;9.75;6.70;;;;;;;26.41;39.87;94103.44;5044125;28;20037;-72
2021/05/13 07:44:41;;;;;;;8.18;6.63;;;;;;;26.41;40.55;94102.69;5028880;28;20396;-71
2021/05/13 07:47:07;;;;;;;8.48;7.03;;;;;;;26.33;40.46;94107.47;5028930;28;20099;-71
2021/05/13 07:49:33;;;;;;;7.00;6.28;;;;;;;26.15;40.05;94075.72;5044035;28;20447;-71
2021/05/13 07:51:59;;;;;;;8.30;6.75;;;;;;;26.17;40.04;94080.63;5027034;28;20804;-70
2021/05/13 07:54:25;;;;;;;7.63;6.65;;;;;;;26.33;40.32;94096.50;5027125;28;20042;-71
2021/05/13 07:56:50;;;;;;;8.70;6.82;;;;;;;26.32;39.94;94090.31;5044296;28;20025;-71
2021/05/13 07:59:16;;;;;;;8.02;6.65;;;;;;;26.26;40.27;94091.03;5043565;28;20645;-71
2021/05/13 08:01:41;;;;;;;7.75;6.70;;;;;;;26.30;39.87;94086.66;5028579;28;20039;-70
2021/05/13 08:04:06;;;;;;;9.40;7.18;;;;;;;26.22;40.83;94080.44;5028550;28;20477;-71
2021/05/13 08:06:32;;;;;;;8.18;6.93;;;;;;;26.26;39.86;94102.69;5028377;28;20059;-71
2021/05/13 08:08:57;;;;;;;8.13;6.60;;;;;;;26.24;40.37;94094.31;5010526;28;20493;-71
2021/05/13 08:11:23;;;;;;;8.52;6.97;;;;;;;26.24;40.74;94086.09;5031135;28;20032;-71
2021/05/13 08:13:48;;;;;;;10.38;6.80;;;;;;;26.04;40.30;94076.09;5046807;28;20032;-71
2021/05/13 08:16:14;;;;;;;8.30;6.50;;;;;;;25.97;40.08;94059.69;5029932;28;20036;-71
2021/05/13 08:18:40;;;;;;;9.85;7.03;;;;;;;25.93;40.25;94059.31;5045939;28;20023;-71
2021/05/13 08:21:05;;;;;;;8.88;7.13;;;;;;;26.17;40.60;94088.84;5030407;28;20025;-71
2021/05/13 08:23:31;;;;;;;7.50;6.80;;;;;;;26.15;40.12;94072.97;5048201;28;20027;-71
2021/05/13 08:25:56;;;;;;;9.68;7.13;;;;;;;25.89;40.77;94042.56;5046900;28;20075;-71
2021/05/13 08:28:22;;;;;;;8.98;7.38;;;;;;;26.16;40.96;94077.19;5063107;28;20037;-71
2021/05/13 08:30:47;;;;;;;8.07;6.43;;;;;;;26.17;40.80;94066.94;5047750;28;20522;-71
2021/05/13 08:33:13;;;;;;;8.93;7.07;;;;;;;26.13;40.84;94061.84;5048021;28;20131;-71
2021/05/13 08:35:38;;;;;;;8.80;6.97;;;;;;;25.99;40.71;94041.44;5030115;28;20032;-71
2021/05/13 08:38:04;;;;;;;8.10;7.00;;;;;;;26.13;39.98;94050.91;5047857;28;20055;-72
2021/05/13 08:40:29;;;;;;;9.18;7.07;;;;;;;26.12;40.62;94060.38;5047581;28;20091;-72
2021/05/13 08:42:55;;;;;;;8.77;6.75;;;;;;;25.84;40.33;94018.84;5046450;28;20094;-72
2021/05/13 08:45:20;;;;;;;9.15;6.88;;;;;;;26.05;40.49;94044.72;5046554;28;20029;-72
2021/05/13 08:47:46;;;;;;;8.23;6.88;;;;;;;26.08;40.24;94054.53;5044914;28;20423;-72
2021/05/13 08:50:13;;;;;;;9.05;7.00;;;;;;;26.10;40.10;94052.00;5028959;28;20035;-70
2021/05/13 08:52:38;;;;;;;7.72;6.90;;;;;;;25.92;40.82;94025.75;5058007;28;20072;-72
2021/05/13 08:55:04;;;;;;;8.52;7.03;;;;;;;26.12;40.88;94043.97;5046125;28;20025;-71
2021/05/13 08:57:31;;;;;;;9.65;7.07;;;;;;;26.13;41.09;94045.44;5047669;28;20100;-71
2021/05/13 08:59:57;;;;;;;7.70;6.68;;;;;;;26.14;41.29;94052.34;5029342;28;20040;-71
2021/05/13 09:02:23;;;;;;;8.48;6.82;;;;;;;26.20;40.08;94044.66;5050971;28;20044;-72
2021/05/13 09:04:51;;;;;;;8.82;6.60;;;;;;;26.18;39.86;94039.03;5052552;28;20025;-71
2021/05/13 09:07:21;;;;;;;8.60;6.72;;;;;;;26.22;40.94;94035.91;5059095;28;20048;-72
2021/05/13 09:10:06;;;;;;;8.02;6.90;;;;;;;26.23;39.89;94043.56;5061082;28;20028;-71
2021/05/13 09:12:47;;;;;;;8.57;6.70;;;;;;;26.24;41.96;94039.56;5056433;28;20052;-71
2021/05/13 09:15:16;;;;;;;9.88;6.50;;;;;;;26.30;40.90;94042.84;5056100;28;20048;-69
2021/05/13 09:17:43;;;;;;;9.63;7.23;;;;;;;26.36;40.57;94029.69;5055248;28;20108;-68
2021/05/13 09:20:29;;;;;;;10.18;8.30;;;;;;;26.34;40.02;94032.28;5053497;28;20203;-71
2021/05/13 09:23:23;;;;;;;10.45;8.43;;;;;;;26.45;40.76;94026.38;5032848;28;20048;-67
2021/05/13 09:26:13;;;;;;;10.88;7.30;;;;;;;26.54;39.95;94029.28;5046731;28;20066;-68
2021/05/13 09:28:39;;;;;;;8.90;7.32;;;;;;;26.62;39.66;94029.25;5045072;28;20039;-68
2021/05/13 09:31:05;;;;;;;11.57;8.10;;;;;;;26.69;39.19;94023.00;5048021;28;20112;-65
2021/05/13 09:33:38;;;;;;;14.02;7.97;;;;;;;26.67;38.52;94020.81;5049341;28;20052;-67
2021/05/13 09:36:23;;;;;;;10.57;8.32;;;;;;;26.73;38.60;94012.41;5065074;28;20021;-69
2021/05/13 09:38:48;;;;;;;11.98;7.82;;;;;;;26.72;38.53;94008.22;5048404;28;20029;-68
2021/05/13 09:41:36;;;;;;;14.57;7.63;;;;;;;26.78;38.31;94009.44;5064806;28;20564;-69
2021/05/13 09:44:01;;;;;;;11.00;8.18;;;;;;;26.82;38.39;94005.03;5049547;28;20476;-70
2021/05/13 09:46:36;;;;;;;11.25;7.60;;;;;;;26.84;38.71;94007.22;5049198;28;20155;-69
2021/05/13 09:49:02;;;;;;;9.20;7.25;;;;;;;26.97;38.57;94010.47;5036749;28;20056;-69
2021/05/13 09:51:31;;;;;;;11.18;6.90;;;;;;;27.02;38.36;94012.25;5031951;28;20408;-68
2021/05/13 09:54:32;;;;;;;9.50;6.95;;;;;;;27.07;38.35;93997.63;5047080;28;20053;-68
2021/05/13 09:56:58;;;;;;;11.00;6.75;;;;;;;26.80;38.16;93963.78;5046105;28;20127;-72
2021/05/13 09:59:28;;;;;;;9.40;7.30;;;;;;;26.95;38.42;93947.28;5054719;28;20121;-69
2021/05/13 10:02:03;;;;;;;7.82;6.22;;;;;;;27.29;38.22;93980.28;5049057;28;20033;-72
2021/05/13 10:04:29;;;;;;;11.48;6.85;;;;;;;27.29;38.03;93985.75;5049950;28;20048;-70
2021/05/13 10:06:55;;;;;;;8.85;7.15;;;;;;;27.26;37.46;93973.19;5049192;28;20032;-69
2021/05/13 10:09:20;;;;;;;11.82;7.20;;;;;;;27.20;37.13;93978.16;5050693;28;20025;-66
2021/05/13 10:11:50;;;;;;;9.85;7.80;;;;;;;27.17;36.93;93978.56;5049690;28;20059;-69
2021/05/13 10:14:15;;;;;;;;;;;;;;;27.08;36.58;93973.69;5050364;28;20198;-68
2021/05/13 10:16:41;;;;;;;10.93;7.47;;;;;;;27.05;36.37;93967.28;5064129;28;19999;-68
2021/05/13 10:19:14;;;;;;;10.68;7.00;;;;;;;26.95;36.32;93947.28;5029423;28;21426;-67
2021/05/13 10:21:41;;;;;;;8.80;5.93;;;;;;;27.18;36.12;93958.81;5031215;28;20052;-72
2021/05/13 10:24:06;;;;;;;9.40;6.03;;;;;;;26.98;35.37;93940.69;5065425;28;20098;-65
2021/05/13 10:26:32;;;;;;;8.52;5.05;;;;;;;27.16;34.74;93961.38;5059790;28;20582;-71
2021/05/13 10:28:58;;;;;;;8.77;4.85;;;;;;;27.12;34.11;93963.78;5065648;28;20035;-72
2021/05/13 10:31:36;;;;;;;6.43;3.65;;;;;;;27.10;32.72;93958.13;5064606;28;20507;-71
2021/05/13 10:34:01;;;;;;;7.13;3.80;;;;;;;27.29;33.02;93958.34;5053290;28;20024;-71
2021/05/13 10:36:27;;;;;;;5.53;3.50;;;;;;;27.12;32.45;93917.19;5060743;28;20024;-71
2021/05/13 10:39:05;;;;;;;4.70;2.72;;;;;;;27.20;31.45;93950.03;5046810;28;20056;-71
2021/05/13 10:41:32;;;;;;;4.28;2.00;;;;;;;27.25;29.73;93941.59;5048635;28;20024;-71
2021/05/13 10:44:09;;;;;;;3.58;2.38;;;;;;;27.50;30.31;93945.03;5049609;28;20517;-70
2021/05/13 10:46:35;;;;;;;4.90;2.28;;;;;;;27.67;30.74;93945.06;5048426;28;20021;-70
2021/05/13 10:49:17;;;;;;;4.18;2.47;;;;;;;27.81;31.49;93944.91;5028816;28;20438;-70
2021/05/13 10:51:47;;;;;;;6.25;3.25;;;;;;;27.92;32.71;93947.19;5047269;28;20055;-70
2021/05/13 10:54:27;;;;;;;5.28;3.03;;;;;;;28.00;33.35;93947.84;5047246;28;20049;-70
2021/05/13 10:57:08;;;;;;;4.20;2.65;;;;;;;28.09;33.01;93941.72;5048656;28;20037;-70
2021/05/13 10:59:34;;;;;;;4.50;2.95;;;;;;;28.07;33.22;93944.31;5045615;28;20491;-69
2021/05/13 11:02:01;;;;;;;6.05;3.15;;;;;;;28.04;33.04;93947.44;5046368;28;20032;-70
2021/05/13 11:04:28;;;;;;;5.50;3.30;;;;;;;28.03;33.54;93941.22;5064032;28;20032;-70
2021/05/13 11:07:12;;;;;;;4.72;2.90;;;;;;;28.01;33.68;93938.31;5036837;28;20041;-70
2021/05/13 11:09:37;;;;;;;4.38;3.00;;;;;;;27.99;33.54;93940.16;5046096;28;20475;-70
2021/05/13 11:12:13;;;;;;;4.70;2.90;;;;;;;27.94;33.81;93944.59;5048112;28;20056;-70
2021/05/13 11:15:05;;;;;;;5.72;3.00;;;;;;;27.87;33.81;93950.19;5048587;28;20089;-70
2021/05/13 11:17:56;;;;;;;4.70;3.17;;;;;;;27.81;33.54;93944.19;5058175;28;20021;-70
2021/05/13 11:20:39;;;;;;;5.18;3.58;;;;;;;27.74;34.30;93943.00;5048818;28;20136;-69
2021/05/13 11:23:11;;;;;;;5.97;3.50;;;;;;;27.63;34.03;93931.75;5041751;28;20025;-70
2021/05/13 11:25:56;;;;;;;3.55;2.92;;;;;;;27.44;34.31;93908.88;5030497;28;20028;-69
2021/05/13 11:28:37;;;;;;;4.68;3.10;;;;;;;27.64;33.84;93944.19;5046598;28;20025;-70
2021/05/13 11:31:06;;;;;;;4.50;3.10;;;;;;;27.60;34.25;93934.91;5030899;28;20025;-69
2021/05/13 11:33:52;;;;;;;6.32;3.38;;;;;;;27.54;34.62;93939.91;5047995;28;20400;-69
2021/05/13 11:36:26;;;;;;;4.93;3.40;;;;;;;27.47;34.27;93940.66;5046278;28;20035;-69
2021/05/13 11:38:58;;;;;;;4.00;3.00;;;;;;;27.28;34.41;93913.03;5047153;28;20032;-68
2021/05/13 11:41:24;;;;;;;3.90;2.95;;;;;;;27.40;34.71;93936.69;5042275;28;20146;-69
2021/05/13 11:43:50;;;;;;;5.25;3.70;;;;;;;27.40;35.20;93925.00;5038079;28;20029;-69
2021/05/13 11:46:22;;;;;;;5.13;3.40;;;;;;;27.34;35.49;93922.47;5056345;28;20121;-69